createdAt,value
2022-12-25T00:04:35.583Z,92173.63
2022-12-25T00:07:23.267Z,92174.72
2022-12-25T00:10:10.842Z,92170.25
2022-12-25T00:12:58.446Z,92171.41
2022-12-25T00:15:48.263Z,92169.19
2022-12-25T00:18:35.899Z,92168.78
2022-12-25T00:21:23.477Z,92159.72
2022-12-25T00:24:11.064Z,92165.75
2022-12-25T00:26:58.615Z,92161.97
2022-12-25T00:29:46.216Z,92155.19
2022-12-25T00:32:33.765Z,92154.81
2022-12-25T00:35:21.338Z,92150.25
2022-12-25T00:38:08.914Z,92153.25
2022-12-25T00:40:56.466Z,92143.84
2022-12-25T00:43:44.188Z,92142.72
2022-12-25T00:46:31.794Z,92134.78
2022-12-25T00:49:19.361Z,92141.94
2022-12-25T00:52:06.958Z,92145.72
2022-12-25T00:54:54.533Z,92147.22
2022-12-25T00:57:42.105Z,92171.06
2022-12-25T01:00:29.722Z,92168.97
2022-12-25T01:03:17.359Z,92170.28
2022-12-25T01:06:05.029Z,92160.66
2022-12-25T01:08:52.642Z,92164.09
2022-12-25T01:11:40.330Z,92158.81
2022-12-25T01:14:29.902Z,92154.84
2022-12-25T01:17:17.500Z,92154.75
2022-12-25T01:20:05.052Z,92148.81
2022-12-25T01:22:52.628Z,92157.75
2022-12-25T01:25:40.197Z,92160.69
2022-12-25T01:28:27.793Z,92159.84
2022-12-25T01:31:15.440Z,92155.47
2022-12-25T01:34:03.103Z,92156.69
2022-12-25T01:36:50.653Z,92153.78
2022-12-25T01:39:38.250Z,92158.78
2022-12-25T01:42:25.819Z,92155.09
2022-12-25T01:45:13.381Z,92152.75
2022-12-25T01:48:01.004Z,92148.16
2022-12-25T01:50:48.569Z,92146.63
2022-12-25T01:53:36.169Z,92143.66
2022-12-25T01:56:23.721Z,92153.72
2022-12-25T01:59:11.285Z,92160.94
2022-12-25T02:01:59.063Z,92161.81
2022-12-25T02:04:46.848Z,92154.72
2022-12-25T02:07:34.426Z,92158.75
2022-12-25T02:10:22.027Z,92162.56
2022-12-25T02:13:09.640Z,92158.06
2022-12-25T02:15:57.179Z,92159.63
2022-12-25T02:18:44.839Z,92158.59
2022-12-25T02:21:32.394Z,92150.06
2022-12-25T02:24:19.996Z,92152.97
2022-12-25T02:27:07.574Z,92150.66
2022-12-25T02:29:55.178Z,92143.59
2022-12-25T02:32:42.822Z,92147.34
2022-12-25T02:35:30.530Z,92143.38
2022-12-25T02:38:18.114Z,92141.38
2022-12-25T02:41:05.695Z,92143.63
2022-12-25T02:43:53.284Z,92136.38
2022-12-25T02:46:40.897Z,92131.03
2022-12-25T02:49:28.483Z,92128.13
2022-12-25T02:52:16.092Z,92115.69
2022-12-25T02:55:03.635Z,92124.25
2022-12-25T02:57:51.225Z,92114.78
2022-12-25T03:00:38.770Z,92123.19
2022-12-25T03:03:28.464Z,92116.00
2022-12-25T03:06:16.073Z,92120.91
2022-12-25T03:09:03.630Z,92110.78
2022-12-25T03:11:51.199Z,92113.81
2022-12-25T03:14:38.807Z,92101.94
2022-12-25T03:17:26.399Z,92097.59
2022-12-25T03:20:13.965Z,92094.50
2022-12-25T03:23:01.561Z,92090.22
2022-12-25T03:25:49.175Z,92091.66
2022-12-25T03:28:36.756Z,92087.41
2022-12-25T03:31:24.414Z,92082.16
2022-12-25T03:34:12.011Z,92086.88
2022-12-25T03:36:59.602Z,92081.44
2022-12-25T03:39:47.173Z,92079.41
2022-12-25T03:42:34.798Z,92074.31
2022-12-25T03:45:22.383Z,92078.47
2022-12-25T03:48:09.979Z,92075.06
2022-12-25T03:50:57.577Z,92069.97
2022-12-25T03:53:45.168Z,92063.66
2022-12-25T03:56:32.751Z,92061.09
2022-12-25T03:59:23.775Z,92061.69
2022-12-25T04:02:11.913Z,92063.25
2022-12-25T04:04:59.635Z,92071.13
2022-12-25T04:07:47.192Z,92061.28
2022-12-25T04:10:34.784Z,92068.22
2022-12-25T04:13:42.315Z,92066.34
2022-12-25T04:16:49.880Z,92062.75
2022-12-25T04:19:52.746Z,92071.09
2022-12-25T04:22:54.124Z,92066.38
2022-12-25T04:25:41.697Z,92070.50
2022-12-25T04:28:29.309Z,92069.19
2022-12-25T04:31:16.972Z,92066.06
2022-12-25T04:34:04.681Z,92067.47
2022-12-25T04:36:52.282Z,92070.16
2022-12-25T04:39:39.838Z,92068.78
2022-12-25T04:42:27.433Z,92064.38
2022-12-25T04:45:15.018Z,92067.84
2022-12-25T04:48:02.702Z,92063.00
2022-12-25T04:50:52.285Z,92060.41
2022-12-25T04:53:39.872Z,92067.34
2022-12-25T04:56:27.475Z,92055.19
2022-12-25T04:59:15.032Z,92056.84
2022-12-25T05:02:02.889Z,92058.38
2022-12-25T05:04:50.648Z,92055.69
2022-12-25T05:07:38.223Z,92049.22
2022-12-25T05:10:25.792Z,92052.19
2022-12-25T05:13:13.392Z,92061.34
2022-12-25T05:16:01.005Z,92054.59
2022-12-25T05:18:50.621Z,92042.91
2022-12-25T05:21:38.193Z,92032.75
2022-12-25T05:24:25.776Z,92032.38
2022-12-25T05:27:13.340Z,92033.88
2022-12-25T05:30:00.940Z,92041.34
2022-12-25T05:32:48.515Z,92038.91
2022-12-25T05:35:36.114Z,92037.22
2022-12-25T05:38:23.673Z,92041.53
2022-12-25T05:41:11.248Z,92042.72
2022-12-25T05:43:58.817Z,92033.22
2022-12-25T05:46:46.566Z,92031.56
2022-12-25T05:49:34.140Z,92039.66
2022-12-25T05:52:21.740Z,92036.50
2022-12-25T05:55:09.293Z,92038.66
2022-12-25T05:57:56.870Z,92043.44
2022-12-25T06:00:44.543Z,92038.84
2022-12-25T06:03:32.143Z,92046.31
2022-12-25T06:06:19.762Z,92051.53
2022-12-25T06:09:07.322Z,92036.75
2022-12-25T06:11:54.917Z,92043.47
2022-12-25T06:14:42.492Z,92045.63
2022-12-25T06:17:30.099Z,92041.25
2022-12-25T06:20:17.700Z,92050.16
2022-12-25T06:23:05.274Z,92056.22
2022-12-25T06:25:52.841Z,92067.38
2022-12-25T06:28:40.417Z,92055.81
2022-12-25T06:31:28.043Z,92064.81
2022-12-25T06:34:15.641Z,92055.63
2022-12-25T06:37:03.218Z,92049.75
2022-12-25T06:39:50.766Z,92042.22
2022-12-25T06:42:38.360Z,92046.19
2022-12-25T06:45:25.987Z,92055.97
2022-12-25T06:48:13.584Z,92056.09
2022-12-25T06:51:01.139Z,92057.38
2022-12-25T06:53:48.718Z,92064.50
2022-12-25T06:56:36.276Z,92067.94
2022-12-25T06:59:23.878Z,92063.78
2022-12-25T07:02:11.588Z,92063.00
2022-12-25T07:04:59.379Z,92057.66
2022-12-25T07:07:46.920Z,92058.47
2022-12-25T07:10:34.518Z,92066.00
2022-12-25T07:13:22.091Z,92066.97
2022-12-25T07:16:09.742Z,92066.75
2022-12-25T07:18:57.360Z,92064.66
2022-12-25T07:21:44.969Z,92061.47
2022-12-25T07:24:32.560Z,92064.63
2022-12-25T07:27:20.106Z,92068.50
2022-12-25T07:30:07.671Z,92063.00
2022-12-25T07:32:55.242Z,92067.91
2022-12-25T07:35:42.779Z,92072.16
2022-12-25T07:38:30.368Z,92074.09
2022-12-25T07:41:18.227Z,92072.44
2022-12-25T07:44:05.807Z,92066.38
2022-12-25T07:46:53.415Z,92077.63
2022-12-25T07:49:43.125Z,92085.69
2022-12-25T07:52:30.715Z,92092.88
2022-12-25T07:55:18.328Z,92086.44
2022-12-25T07:58:07.110Z,92094.88
2022-12-25T08:00:54.988Z,92092.34
2022-12-25T08:03:42.728Z,92097.09
2022-12-25T08:06:30.455Z,92096.72
2022-12-25T08:09:18.035Z,92100.22
2022-12-25T08:12:05.615Z,92106.97
2022-12-25T08:14:53.193Z,92107.38
2022-12-25T08:17:40.787Z,92116.88
2022-12-25T08:20:28.338Z,92111.69
2022-12-25T08:23:15.941Z,92099.06
2022-12-25T08:26:05.370Z,92100.47
2022-12-25T08:28:53.392Z,92098.00
2022-12-25T08:31:45.883Z,92100.91
2022-12-25T08:34:36.143Z,92112.72
2022-12-25T08:37:23.811Z,92109.84
2022-12-25T08:40:11.384Z,92117.91
2022-12-25T08:42:58.973Z,92128.44
2022-12-25T08:45:46.616Z,92126.63
2022-12-25T08:48:34.192Z,92120.78
2022-12-25T08:51:21.792Z,92134.47
2022-12-25T08:54:09.373Z,92126.28
2022-12-25T08:57:02.420Z,92126.78
2022-12-25T08:59:50.691Z,92121.22
2022-12-25T09:02:38.426Z,92129.19
2022-12-25T09:05:26.167Z,92123.47
2022-12-25T09:08:15.094Z,92122.81
2022-12-25T09:11:02.675Z,92109.84
2022-12-25T09:13:50.366Z,92110.97
2022-12-25T09:16:37.936Z,92111.75
2022-12-25T09:19:25.760Z,92121.25
2022-12-25T09:22:13.378Z,92124.34
2022-12-25T09:25:00.931Z,92136.06
2022-12-25T09:27:48.495Z,92129.72
2022-12-25T09:30:36.157Z,92134.97
2022-12-25T09:33:23.809Z,92133.41
2022-12-25T09:36:11.367Z,92130.53
2022-12-25T09:38:58.997Z,92132.97
2022-12-25T09:41:46.551Z,92136.38
2022-12-25T09:44:34.146Z,92131.72
2022-12-25T09:47:21.706Z,92124.16
2022-12-25T09:50:09.265Z,92112.97
2022-12-25T09:52:56.824Z,92113.00
2022-12-25T09:55:44.407Z,92112.19
2022-12-25T09:58:31.992Z,92104.34
2022-12-25T10:01:19.741Z,92105.13
2022-12-25T10:04:07.397Z,92097.63
2022-12-25T10:06:54.981Z,92101.03
2022-12-25T10:09:42.573Z,92098.78
2022-12-25T10:12:30.260Z,92094.66
2022-12-25T10:15:17.899Z,92096.19
2022-12-25T10:18:05.502Z,92106.72
2022-12-25T10:20:53.109Z,92122.56
2022-12-25T10:23:40.714Z,92111.53
2022-12-25T10:26:28.334Z,92104.47
2022-12-25T10:29:15.898Z,92107.16
2022-12-25T10:32:03.475Z,92096.22
2022-12-25T10:34:51.008Z,92092.09
2022-12-25T10:37:38.578Z,92083.38
2022-12-25T10:40:26.162Z,92076.97
2022-12-25T10:43:13.748Z,92081.47
2022-12-25T10:46:01.353Z,92081.88
2022-12-25T10:48:48.957Z,92090.53
2022-12-25T10:51:36.516Z,92091.28
2022-12-25T10:54:24.076Z,92082.19
2022-12-25T10:57:11.633Z,92077.25
2022-12-25T10:59:59.210Z,92065.91
2022-12-25T11:02:46.912Z,92063.25
2022-12-25T11:05:34.629Z,92062.81
2022-12-25T11:08:22.207Z,92062.44
2022-12-25T11:11:09.799Z,92049.47
2022-12-25T11:13:57.358Z,92022.25
2022-12-25T11:16:44.970Z,92011.94
2022-12-25T11:19:32.554Z,92017.25
2022-12-25T11:22:20.161Z,92039.91
2022-12-25T11:25:07.714Z,92058.84
2022-12-25T11:27:55.305Z,92061.84
2022-12-25T11:30:42.892Z,92067.44
2022-12-25T11:33:30.451Z,92068.81
2022-12-25T11:36:18.018Z,92065.69
2022-12-25T11:39:05.603Z,92055.59
2022-12-25T11:41:53.165Z,92031.91
2022-12-25T11:44:40.727Z,92032.69
2022-12-25T11:47:28.308Z,92050.50
2022-12-25T11:50:15.902Z,92061.44
2022-12-25T11:53:03.458Z,92064.84
2022-12-25T11:55:51.060Z,92056.19
2022-12-25T11:58:38.636Z,92052.00
2022-12-25T12:01:26.228Z,92039.56
2022-12-25T12:04:13.983Z,92056.56
2022-12-25T12:07:03.612Z,92058.06
2022-12-25T12:09:51.200Z,92058.81
2022-12-25T12:12:43.110Z,92042.94
2022-12-25T12:15:34.318Z,92045.22
2022-12-25T12:18:21.899Z,92054.31
2022-12-25T12:21:09.458Z,92059.56
2022-12-25T12:23:57.022Z,92066.75
2022-12-25T12:26:44.617Z,92062.59
2022-12-25T12:29:32.186Z,92078.47
2022-12-25T12:32:19.765Z,92067.13
2022-12-25T12:35:07.367Z,92065.63
2022-12-25T12:37:54.948Z,92053.16
2022-12-25T12:40:42.644Z,92061.09
2022-12-25T12:43:30.211Z,92052.03
2022-12-25T12:46:17.968Z,92047.47
2022-12-25T12:49:05.799Z,92046.00
2022-12-25T12:51:53.397Z,92040.22
2022-12-25T12:54:40.956Z,92047.38
2022-12-25T12:57:28.529Z,92036.41
2022-12-25T13:00:16.131Z,92046.22
2022-12-25T13:03:03.773Z,92040.94
2022-12-25T13:05:51.383Z,92041.66
2022-12-25T13:08:38.963Z,92041.63
2022-12-25T13:11:26.506Z,92047.34
2022-12-25T13:14:14.092Z,92047.38
2022-12-25T13:17:01.728Z,92049.22
2022-12-25T13:19:49.436Z,92059.38
2022-12-25T13:22:36.994Z,92054.53
2022-12-25T13:25:24.581Z,92060.19
2022-12-25T13:28:12.123Z,92056.47
2022-12-25T13:30:59.707Z,92068.94
2022-12-25T13:33:47.270Z,92075.34
2022-12-25T13:36:34.856Z,92073.09
2022-12-25T13:39:22.462Z,92077.25
2022-12-25T13:42:10.103Z,92062.22
2022-12-25T13:44:57.728Z,92078.81
2022-12-25T13:47:48.690Z,92066.34
2022-12-25T13:50:39.100Z,92068.19
2022-12-25T13:53:27.623Z,92067.03
2022-12-25T13:56:15.228Z,92067.41
2022-12-25T13:59:02.805Z,92070.06
2022-12-25T14:01:50.498Z,92067.41
2022-12-25T14:04:38.240Z,92074.66
2022-12-25T14:07:27.793Z,92071.28
2022-12-25T14:10:15.383Z,92065.63
2022-12-25T14:13:02.929Z,92079.97
2022-12-25T14:15:50.658Z,92074.69
2022-12-25T14:18:38.244Z,92074.31
2022-12-25T14:21:25.837Z,92075.47
2022-12-25T14:24:13.399Z,92065.25
2022-12-25T14:27:00.995Z,92072.78
2022-12-25T14:29:48.552Z,92072.75
2022-12-25T14:32:36.130Z,92079.59
2022-12-25T14:35:24.045Z,92078.81
2022-12-25T14:38:11.637Z,92075.44
2022-12-25T14:40:59.180Z,92063.63
2022-12-25T14:43:46.749Z,92065.06
2022-12-25T14:46:34.410Z,92062.53
2022-12-25T14:49:22.060Z,92068.50
2022-12-25T14:52:09.608Z,92061.28
2022-12-25T14:54:57.197Z,92060.91
2022-12-25T14:57:44.777Z,92062.44
2022-12-25T15:00:32.408Z,92072.13
2022-12-25T15:03:20.099Z,92073.31
2022-12-25T15:06:07.856Z,92063.66
2022-12-25T15:08:55.476Z,92070.81
2022-12-25T15:11:43.036Z,92063.19
2022-12-25T15:14:30.608Z,92065.59
2022-12-25T15:17:18.200Z,92059.88
2022-12-25T15:20:05.799Z,92057.25
2022-12-25T15:23:18.587Z,92061.00
2022-12-25T15:26:00.869Z,92059.13
2022-12-25T15:28:48.442Z,92057.19
2022-12-25T15:31:36.125Z,92062.47
2022-12-25T15:34:23.726Z,92060.19
2022-12-25T15:37:11.298Z,92061.63
2022-12-25T15:40:02.213Z,92055.50
2022-12-25T15:42:50.088Z,92039.34
2022-12-25T15:45:37.657Z,92045.44
2022-12-25T15:48:25.245Z,92051.03
2022-12-25T15:51:12.815Z,92048.34
2022-12-25T15:54:00.408Z,92054.00
2022-12-25T15:56:47.955Z,92045.00
2022-12-25T15:59:35.591Z,92049.59
2022-12-25T16:02:23.221Z,92056.03
2022-12-25T16:05:10.898Z,92063.53
2022-12-25T16:07:58.469Z,92063.53
2022-12-25T16:10:46.074Z,92077.25
2022-12-25T16:13:33.632Z,92067.34
2022-12-25T16:16:21.344Z,92066.59
2022-12-25T16:19:09.019Z,92057.94
2022-12-25T16:21:56.628Z,92066.63
2022-12-25T16:24:44.215Z,92067.03
2022-12-25T16:27:31.801Z,92082.38
2022-12-25T16:30:19.387Z,92077.75
2022-12-25T16:33:06.979Z,92064.22
2022-12-25T16:35:54.563Z,92066.97
2022-12-25T16:38:42.157Z,92077.44
2022-12-25T16:41:29.729Z,92075.25
2022-12-25T16:44:17.297Z,92080.47
2022-12-25T16:47:04.887Z,92082.69
2022-12-25T16:49:52.467Z,92090.63
2022-12-25T16:52:40.027Z,92090.34
2022-12-25T16:55:30.219Z,92105.00
2022-12-25T16:58:20.083Z,92104.41
2022-12-25T17:01:07.649Z,92102.97
2022-12-25T17:03:55.294Z,92116.09
2022-12-25T17:06:42.941Z,92118.13
2022-12-25T17:09:31.554Z,92115.88
2022-12-25T17:12:19.164Z,92122.56
2022-12-25T17:15:06.745Z,92121.56
2022-12-25T17:17:54.283Z,92119.09
2022-12-25T17:20:41.875Z,92118.06
2022-12-25T17:23:29.418Z,92109.47
2022-12-25T17:26:16.988Z,92110.66
2022-12-25T17:29:04.545Z,92103.06
2022-12-25T17:31:52.188Z,92102.41
2022-12-25T17:34:39.793Z,92104.44
2022-12-25T17:37:27.390Z,92108.50
2022-12-25T17:40:14.947Z,92105.34
2022-12-25T17:43:02.543Z,92108.19
2022-12-25T17:45:50.087Z,92103.78
2022-12-25T17:48:37.664Z,92103.91
2022-12-25T17:51:25.254Z,92104.69
2022-12-25T17:54:12.853Z,92105.31
2022-12-25T17:57:00.408Z,92088.09
2022-12-25T17:59:49.986Z,92101.25
2022-12-25T18:02:37.624Z,92112.13
2022-12-25T18:05:25.310Z,92102.88
2022-12-25T18:08:12.876Z,92110.28
2022-12-25T18:11:00.473Z,92109.31
2022-12-25T18:13:49.097Z,92113.28
2022-12-25T18:16:36.783Z,92118.63
2022-12-25T18:19:24.394Z,92108.59
2022-12-25T18:22:12.049Z,92100.56
2022-12-25T18:24:59.646Z,92098.31
2022-12-25T18:27:47.246Z,92096.88
2022-12-25T18:30:34.822Z,92104.28
2022-12-25T18:33:22.402Z,92098.72
2022-12-25T18:36:09.974Z,92092.66
2022-12-25T18:38:57.538Z,92094.56
2022-12-25T18:41:45.123Z,92099.06
2022-12-25T18:44:32.717Z,92108.03
2022-12-25T18:47:20.290Z,92102.09
2022-12-25T18:50:07.845Z,92110.03
2022-12-25T18:52:55.408Z,92105.38
2022-12-25T18:55:42.987Z,92102.09
2022-12-25T18:58:30.574Z,92102.53
2022-12-25T19:01:18.346Z,92106.34
2022-12-25T19:04:06.210Z,92092.97
2022-12-25T19:06:53.783Z,92094.59
2022-12-25T19:09:41.369Z,92102.41
2022-12-25T19:12:28.938Z,92101.50
2022-12-25T19:15:16.496Z,92114.59
2022-12-25T19:18:04.055Z,92112.63
2022-12-25T19:20:51.626Z,92110.44
2022-12-25T19:23:39.193Z,92117.22
2022-12-25T19:26:26.761Z,92116.88
2022-12-25T19:29:14.344Z,92114.41
2022-12-25T19:32:01.903Z,92120.25
2022-12-25T19:34:49.525Z,92120.50
2022-12-25T19:37:37.093Z,92110.00
2022-12-25T19:40:24.718Z,92108.00
2022-12-25T19:43:12.318Z,92114.53
2022-12-25T19:45:59.963Z,92119.69
2022-12-25T19:48:47.615Z,92128.56
2022-12-25T19:51:35.187Z,92118.03
2022-12-25T19:54:22.789Z,92118.78
2022-12-25T19:57:10.343Z,92134.44
2022-12-25T19:59:57.929Z,92143.25
2022-12-25T20:02:45.604Z,92129.88
2022-12-25T20:05:33.276Z,92141.41
2022-12-25T20:08:20.867Z,92145.19
2022-12-25T20:11:08.454Z,92148.25
2022-12-25T20:13:56.028Z,92149.38
2022-12-25T20:16:43.654Z,92160.56
2022-12-25T20:19:31.282Z,92170.97
2022-12-25T20:22:18.859Z,92181.78
2022-12-25T20:25:06.437Z,92190.66
2022-12-25T20:27:54.001Z,92198.69
2022-12-25T20:30:41.576Z,92187.81
2022-12-25T20:33:29.127Z,92199.28
2022-12-25T20:36:16.704Z,92197.16
2022-12-25T20:39:04.386Z,92198.22
2022-12-25T20:41:51.941Z,92210.34
2022-12-25T20:44:39.519Z,92211.91
2022-12-25T20:47:27.078Z,92213.28
2022-12-25T20:50:14.658Z,92217.19
2022-12-25T20:53:02.254Z,92229.19
2022-12-25T20:55:49.840Z,92229.41
2022-12-25T20:58:37.424Z,92238.31
2022-12-25T21:01:25.125Z,92245.75
2022-12-25T21:04:16.263Z,92249.03
2022-12-25T21:07:04.308Z,92242.75
2022-12-25T21:09:51.978Z,92240.69
2022-12-25T21:12:41.510Z,92244.13
2022-12-25T21:15:29.121Z,92245.13
2022-12-25T21:18:16.704Z,92242.59
2022-12-25T21:21:04.313Z,92248.44
2022-12-25T21:23:51.866Z,92244.91
2022-12-25T21:26:44.410Z,92258.56
2022-12-25T21:29:35.304Z,92250.66
2022-12-25T21:32:22.870Z,92258.81
2022-12-25T21:35:10.432Z,92264.25
2022-12-25T21:37:58.068Z,92269.25
2022-12-25T21:40:45.661Z,92268.69
2022-12-25T21:43:33.214Z,92268.59
2022-12-25T21:46:20.877Z,92270.94
2022-12-25T21:49:08.468Z,92266.19
2022-12-25T21:51:56.060Z,92270.31
2022-12-25T21:54:43.661Z,92268.59
2022-12-25T21:57:31.218Z,92274.66
2022-12-25T22:00:18.801Z,92271.84
2022-12-25T22:03:06.561Z,92286.03
2022-12-25T22:05:54.198Z,92280.34
2022-12-25T22:08:41.757Z,92282.09
2022-12-25T22:11:29.334Z,92284.50
2022-12-25T22:14:16.898Z,92290.38
2022-12-25T22:17:04.509Z,92290.94
2022-12-25T22:19:52.073Z,92287.84
2022-12-25T22:22:39.646Z,92284.03
2022-12-25T22:25:27.202Z,92297.63
2022-12-25T22:28:14.765Z,92301.25
2022-12-25T22:31:02.413Z,92307.22
2022-12-25T22:33:50.055Z,92308.03
2022-12-25T22:36:37.640Z,92316.69
2022-12-25T22:39:25.251Z,92315.53
2022-12-25T22:42:12.820Z,92314.81
2022-12-25T22:45:00.383Z,92313.91
2022-12-25T22:47:47.997Z,92327.03
2022-12-25T22:50:35.579Z,92331.44
2022-12-25T22:53:23.141Z,92324.53
2022-12-25T22:56:10.754Z,92327.84
2022-12-25T22:58:58.356Z,92324.25
2022-12-25T23:01:46.007Z,92319.44
2022-12-25T23:04:33.616Z,92327.34
2022-12-25T23:07:21.184Z,92332.69
2022-12-25T23:10:08.762Z,92334.75
2022-12-25T23:12:56.332Z,92330.56
2022-12-25T23:15:44.008Z,92338.97
2022-12-25T23:18:31.567Z,92335.59
2022-12-25T23:21:19.166Z,92336.19
2022-12-25T23:24:06.752Z,92336.59
2022-12-25T23:26:54.334Z,92337.28
2022-12-25T23:29:41.996Z,92342.16
2022-12-25T23:32:29.548Z,92337.84
2022-12-25T23:35:17.139Z,92338.13
2022-12-25T23:38:04.683Z,92341.13
2022-12-25T23:40:52.278Z,92347.03
2022-12-25T23:43:39.837Z,92344.84
2022-12-25T23:46:27.456Z,92352.63
2022-12-25T23:49:15.093Z,92346.84
2022-12-25T23:52:02.688Z,92350.69
2022-12-25T23:54:50.249Z,92352.88
2022-12-25T23:57:37.814Z,92353.09
